sensor_id;sensor_type;location;lat;lon;timestamp;P1;durP1;ratioP1;P2;durP2;ratioP2
14052;SDS011;7101;51.600;7.310;2023-04-03T00:00:51;8.65;;;4.95;;
14052;SDS011;7101;51.600;7.310;2023-04-03T00:03:18;6.47;;;4.60;;
14052;SDS011;7101;51.600;7.310;2023-04-03T00:05:47;10.00;;;4.72;;
14052;SDS011;7101;51.600;7.310;2023-04-03T00:08:14;6.82;;;4.32;;
14052;SDS011;7101;51.600;7.310;2023-04-03T00:10:41;5.60;;;4.28;;
14052;SDS011;7101;51.600;7.310;2023-04-03T00:13:08;6.68;;;3.75;;
14052;SDS011;7101;51.600;7.310;2023-04-03T00:15:36;6.38;;;3.88;;
14052;SDS011;7101;51.600;7.310;2023-04-03T00:18:04;7.95;;;3.50;;
14052;SDS011;7101;51.600;7.310;2023-04-03T00:20:32;6.68;;;2.92;;
14052;SDS011;7101;51.600;7.310;2023-04-03T00:23:01;6.53;;;3.00;;
14052;SDS011;7101;51.600;7.310;2023-04-03T00:25:28;4.22;;;2.75;;
14052;SDS011;7101;51.600;7.310;2023-04-03T00:27:56;4.88;;;2.60;;
14052;SDS011;7101;51.600;7.310;2023-04-03T00:30:23;4.93;;;2.60;;
14052;SDS011;7101;51.600;7.310;2023-04-03T00:32:52;5.15;;;2.90;;
14052;SDS011;7101;51.600;7.310;2023-04-03T00:35:19;4.00;;;2.50;;
14052;SDS011;7101;51.600;7.310;2023-04-03T00:37:47;3.67;;;2.28;;
14052;SDS011;7101;51.600;7.310;2023-04-03T00:40:18;5.47;;;2.60;;
14052;SDS011;7101;51.600;7.310;2023-04-03T00:42:46;4.50;;;2.15;;
14052;SDS011;7101;51.600;7.310;2023-04-03T00:45:31;4.70;;;2.30;;
14052;SDS011;7101;51.600;7.310;2023-04-03T00:48:00;4.85;;;2.25;;
14052;SDS011;7101;51.600;7.310;2023-04-03T00:50:30;4.63;;;2.20;;
14052;SDS011;7101;51.600;7.310;2023-04-03T00:53:01;5.97;;;1.92;;
14052;SDS011;7101;51.600;7.310;2023-04-03T00:55:31;5.18;;;2.10;;
14052;SDS011;7101;51.600;7.310;2023-04-03T00:57:58;4.20;;;2.20;;
14052;SDS011;7101;51.600;7.310;2023-04-03T01:00:26;5.70;;;1.95;;
14052;SDS011;7101;51.600;7.310;2023-04-03T01:02:53;4.18;;;1.77;;
14052;SDS011;7101;51.600;7.310;2023-04-03T01:05:22;4.28;;;2.15;;
14052;SDS011;7101;51.600;7.310;2023-04-03T01:07:49;5.95;;;1.95;;
14052;SDS011;7101;51.600;7.310;2023-04-03T01:10:21;6.35;;;1.80;;
14052;SDS011;7101;51.600;7.310;2023-04-03T01:12:51;5.13;;;2.08;;
14052;SDS011;7101;51.600;7.310;2023-04-03T01:15:19;5.63;;;2.10;;
14052;SDS011;7101;51.600;7.310;2023-04-03T01:17:49;4.95;;;1.95;;
14052;SDS011;7101;51.600;7.310;2023-04-03T01:23:24;8.13;;;2.22;;
14052;SDS011;7101;51.600;7.310;2023-04-03T01:25:57;6.47;;;2.00;;
14052;SDS011;7101;51.600;7.310;2023-04-03T01:28:26;7.75;;;2.40;;
14052;SDS011;7101;51.600;7.310;2023-04-03T01:30:56;4.20;;;1.98;;
14052;SDS011;7101;51.600;7.310;2023-04-03T01:33:31;6.28;;;2.20;;
14052;SDS011;7101;51.600;7.310;2023-04-03T01:35:59;6.40;;;2.03;;
14052;SDS011;7101;51.600;7.310;2023-04-03T01:38:26;3.50;;;1.85;;
14052;SDS011;7101;51.600;7.310;2023-04-03T01:40:53;6.05;;;2.10;;
14052;SDS011;7101;51.600;7.310;2023-04-03T01:43:21;5.78;;;2.20;;
14052;SDS011;7101;51.600;7.310;2023-04-03T01:45:48;6.63;;;2.47;;
14052;SDS011;7101;51.600;7.310;2023-04-03T01:48:17;7.18;;;2.28;;
14052;SDS011;7101;51.600;7.310;2023-04-03T01:50:46;6.13;;;2.38;;
14052;SDS011;7101;51.600;7.310;2023-04-03T01:53:12;5.15;;;2.50;;
14052;SDS011;7101;51.600;7.310;2023-04-03T01:55:41;6.00;;;2.42;;
14052;SDS011;7101;51.600;7.310;2023-04-03T01:58:08;7.63;;;2.20;;
14052;SDS011;7101;51.600;7.310;2023-04-03T02:00:35;7.00;;;1.90;;
14052;SDS011;7101;51.600;7.310;2023-04-03T02:03:01;5.25;;;2.13;;
14052;SDS011;7101;51.600;7.310;2023-04-03T02:05:29;8.13;;;2.08;;
14052;SDS011;7101;51.600;7.310;2023-04-03T02:07:58;4.60;;;2.00;;
14052;SDS011;7101;51.600;7.310;2023-04-03T02:10:25;5.30;;;2.03;;
14052;SDS011;7101;51.600;7.310;2023-04-03T02:12:53;5.78;;;2.10;;
14052;SDS011;7101;51.600;7.310;2023-04-03T02:15:20;5.85;;;1.85;;
14052;SDS011;7101;51.600;7.310;2023-04-03T02:17:47;6.97;;;2.22;;
14052;SDS011;7101;51.600;7.310;2023-04-03T02:20:14;6.38;;;2.08;;
14052;SDS011;7101;51.600;7.310;2023-04-03T02:22:41;4.05;;;1.77;;
14052;SDS011;7101;51.600;7.310;2023-04-03T02:25:10;8.07;;;2.45;;
14052;SDS011;7101;51.600;7.310;2023-04-03T02:27:38;4.50;;;1.58;;
14052;SDS011;7101;51.600;7.310;2023-04-03T02:30:06;6.20;;;2.20;;
14052;SDS011;7101;51.600;7.310;2023-04-03T02:32:36;6.68;;;1.92;;
14052;SDS011;7101;51.600;7.310;2023-04-03T02:35:03;4.20;;;1.83;;
14052;SDS011;7101;51.600;7.310;2023-04-03T02:37:31;3.70;;;1.75;;
14052;SDS011;7101;51.600;7.310;2023-04-03T02:39:57;4.70;;;1.60;;
14052;SDS011;7101;51.600;7.310;2023-04-03T02:42:26;8.55;;;1.90;;
14052;SDS011;7101;51.600;7.310;2023-04-03T02:44:52;3.47;;;1.60;;
14052;SDS011;7101;51.600;7.310;2023-04-03T02:47:21;5.00;;;1.80;;
14052;SDS011;7101;51.600;7.310;2023-04-03T02:49:48;8.85;;;2.30;;
14052;SDS011;7101;51.600;7.310;2023-04-03T02:52:14;4.40;;;1.70;;
14052;SDS011;7101;51.600;7.310;2023-04-03T02:54:41;5.05;;;2.33;;
14052;SDS011;7101;51.600;7.310;2023-04-03T02:57:09;7.03;;;1.92;;
14052;SDS011;7101;51.600;7.310;2023-04-03T02:59:37;5.80;;;2.10;;
14052;SDS011;7101;51.600;7.310;2023-04-03T03:02:06;6.38;;;2.22;;
14052;SDS011;7101;51.600;7.310;2023-04-03T03:04:35;8.52;;;2.20;;
14052;SDS011;7101;51.600;7.310;2023-04-03T03:07:03;6.03;;;2.10;;
14052;SDS011;7101;51.600;7.310;2023-04-03T03:09:30;6.07;;;1.98;;
14052;SDS011;7101;51.600;7.310;2023-04-03T03:11:57;7.75;;;2.10;;
14052;SDS011;7101;51.600;7.310;2023-04-03T03:14:24;4.28;;;2.33;;
14052;SDS011;7101;51.600;7.310;2023-04-03T03:16:52;5.20;;;1.90;;
14052;SDS011;7101;51.600;7.310;2023-04-03T03:19:19;5.25;;;2.08;;
14052;SDS011;7101;51.600;7.310;2023-04-03T03:21:46;5.45;;;1.67;;
14052;SDS011;7101;51.600;7.310;2023-04-03T03:24:13;5.63;;;2.15;;
14052;SDS011;7101;51.600;7.310;2023-04-03T03:26:41;9.18;;;2.30;;
14052;SDS011;7101;51.600;7.310;2023-04-03T03:29:07;7.60;;;2.22;;
14052;SDS011;7101;51.600;7.310;2023-04-03T03:31:35;7.40;;;2.20;;
14052;SDS011;7101;51.600;7.310;2023-04-03T03:34:04;4.78;;;2.00;;
14052;SDS011;7101;51.600;7.310;2023-04-03T03:36:30;7.60;;;1.90;;
14052;SDS011;7101;51.600;7.310;2023-04-03T03:38:58;6.32;;;2.08;;
14052;SDS011;7101;51.600;7.310;2023-04-03T03:41:27;5.28;;;2.28;;
14052;SDS011;7101;51.600;7.310;2023-04-03T03:44:00;5.47;;;2.00;;
14052;SDS011;7101;51.600;7.310;2023-04-03T03:46:27;5.38;;;2.00;;
14052;SDS011;7101;51.600;7.310;2023-04-03T03:48:53;5.45;;;1.83;;
14052;SDS011;7101;51.600;7.310;2023-04-03T03:51:22;4.80;;;2.35;;
14052;SDS011;7101;51.600;7.310;2023-04-03T03:53:50;6.57;;;2.33;;
14052;SDS011;7101;51.600;7.310;2023-04-03T03:56:16;5.43;;;2.05;;
14052;SDS011;7101;51.600;7.310;2023-04-03T03:58:43;6.28;;;2.10;;
14052;SDS011;7101;51.600;7.310;2023-04-03T04:01:10;7.60;;;2.22;;
14052;SDS011;7101;51.600;7.310;2023-04-03T04:03:37;4.70;;;1.92;;
14052;SDS011;7101;51.600;7.310;2023-04-03T04:06:04;5.65;;;2.30;;
14052;SDS011;7101;51.600;7.310;2023-04-03T04:08:33;10.60;;;2.40;;
14052;SDS011;7101;51.600;7.310;2023-04-03T04:11:00;7.65;;;2.13;;
14052;SDS011;7101;51.600;7.310;2023-04-03T04:13:26;6.68;;;2.42;;
14052;SDS011;7101;51.600;7.310;2023-04-03T04:15:53;8.38;;;2.20;;
14052;SDS011;7101;51.600;7.310;2023-04-03T04:18:20;5.00;;;2.00;;
14052;SDS011;7101;51.600;7.310;2023-04-03T04:20:49;5.50;;;2.03;;
14052;SDS011;7101;51.600;7.310;2023-04-03T04:23:16;3.92;;;2.28;;
14052;SDS011;7101;51.600;7.310;2023-04-03T04:25:45;7.68;;;2.45;;
14052;SDS011;7101;51.600;7.310;2023-04-03T04:28:13;5.00;;;2.35;;
14052;SDS011;7101;51.600;7.310;2023-04-03T04:30:42;7.07;;;2.28;;
14052;SDS011;7101;51.600;7.310;2023-04-03T04:33:10;4.95;;;2.05;;
14052;SDS011;7101;51.600;7.310;2023-04-03T04:35:41;9.48;;;2.60;;
14052;SDS011;7101;51.600;7.310;2023-04-03T04:38:08;6.75;;;2.17;;
14052;SDS011;7101;51.600;7.310;2023-04-03T04:40:36;6.97;;;2.03;;
14052;SDS011;7101;51.600;7.310;2023-04-03T04:43:04;5.25;;;2.25;;
14052;SDS011;7101;51.600;7.310;2023-04-03T04:45:32;5.82;;;2.05;;
14052;SDS011;7101;51.600;7.310;2023-04-03T04:47:59;7.68;;;2.38;;
14052;SDS011;7101;51.600;7.310;2023-04-03T04:50:26;5.45;;;2.22;;
14052;SDS011;7101;51.600;7.310;2023-04-03T04:52:54;7.18;;;2.53;;
14052;SDS011;7101;51.600;7.310;2023-04-03T04:55:21;5.18;;;2.10;;
14052;SDS011;7101;51.600;7.310;2023-04-03T04:57:48;6.35;;;2.28;;
14052;SDS011;7101;51.600;7.310;2023-04-03T05:00:16;8.23;;;2.85;;
14052;SDS011;7101;51.600;7.310;2023-04-03T05:05:15;4.82;;;2.25;;
14052;SDS011;7101;51.600;7.310;2023-04-03T05:07:43;7.35;;;2.55;;
14052;SDS011;7101;51.600;7.310;2023-04-03T05:10:10;10.60;;;3.15;;
14052;SDS011;7101;51.600;7.310;2023-04-03T05:12:37;8.57;;;2.22;;
14052;SDS011;7101;51.600;7.310;2023-04-03T05:15:04;10.13;;;3.00;;
14052;SDS011;7101;51.600;7.310;2023-04-03T05:17:33;7.78;;;2.92;;
14052;SDS011;7101;51.600;7.310;2023-04-03T05:20:00;7.63;;;2.80;;
14052;SDS011;7101;51.600;7.310;2023-04-03T05:22:29;8.77;;;2.92;;
14052;SDS011;7101;51.600;7.310;2023-04-03T05:24:55;5.50;;;2.38;;
14052;SDS011;7101;51.600;7.310;2023-04-03T05:27:23;8.65;;;3.05;;
14052;SDS011;7101;51.600;7.310;2023-04-03T05:29:53;8.15;;;2.88;;
14052;SDS011;7101;51.600;7.310;2023-04-03T05:32:21;8.20;;;2.47;;
14052;SDS011;7101;51.600;7.310;2023-04-03T05:34:50;9.43;;;3.05;;
14052;SDS011;7101;51.600;7.310;2023-04-03T05:37:17;7.50;;;2.80;;
14052;SDS011;7101;51.600;7.310;2023-04-03T05:39:45;9.80;;;2.70;;
14052;SDS011;7101;51.600;7.310;2023-04-03T05:42:12;11.32;;;2.85;;
14052;SDS011;7101;51.600;7.310;2023-04-03T05:44:40;6.35;;;2.38;;
14052;SDS011;7101;51.600;7.310;2023-04-03T05:47:06;8.02;;;2.72;;
14052;SDS011;7101;51.600;7.310;2023-04-03T05:49:34;7.50;;;2.40;;
14052;SDS011;7101;51.600;7.310;2023-04-03T05:52:03;4.90;;;2.20;;
14052;SDS011;7101;51.600;7.310;2023-04-03T05:54:30;7.93;;;2.65;;
14052;SDS011;7101;51.600;7.310;2023-04-03T05:59:28;7.32;;;2.40;;
14052;SDS011;7101;51.600;7.310;2023-04-03T06:01:57;6.47;;;2.25;;
14052;SDS011;7101;51.600;7.310;2023-04-03T06:04:23;5.35;;;2.47;;
14052;SDS011;7101;51.600;7.310;2023-04-03T06:06:52;6.80;;;2.25;;
14052;SDS011;7101;51.600;7.310;2023-04-03T06:09:24;6.07;;;2.47;;
14052;SDS011;7101;51.600;7.310;2023-04-03T06:11:53;6.18;;;2.47;;
14052;SDS011;7101;51.600;7.310;2023-04-03T06:14:26;5.95;;;2.13;;
14052;SDS011;7101;51.600;7.310;2023-04-03T06:16:55;7.07;;;2.50;;
14052;SDS011;7101;51.600;7.310;2023-04-03T06:19:32;7.75;;;2.38;;
14052;SDS011;7101;51.600;7.310;2023-04-03T06:21:59;5.07;;;2.42;;
14052;SDS011;7101;51.600;7.310;2023-04-03T06:24:30;5.40;;;2.40;;
14052;SDS011;7101;51.600;7.310;2023-04-03T06:27:10;7.40;;;2.30;;
14052;SDS011;7101;51.600;7.310;2023-04-03T06:29:37;7.75;;;2.50;;
14052;SDS011;7101;51.600;7.310;2023-04-03T06:32:05;6.18;;;2.17;;
14052;SDS011;7101;51.600;7.310;2023-04-03T06:34:33;6.07;;;2.38;;
14052;SDS011;7101;51.600;7.310;2023-04-03T06:37:01;5.28;;;2.20;;
14052;SDS011;7101;51.600;7.310;2023-04-03T06:39:31;6.47;;;2.30;;
14052;SDS011;7101;51.600;7.310;2023-04-03T06:42:08;6.47;;;2.22;;
14052;SDS011;7101;51.600;7.310;2023-04-03T06:44:43;3.65;;;2.10;;
14052;SDS011;7101;51.600;7.310;2023-04-03T06:47:18;5.97;;;2.17;;
14052;SDS011;7101;51.600;7.310;2023-04-03T06:49:45;5.10;;;2.08;;
14052;SDS011;7101;51.600;7.310;2023-04-03T06:52:12;9.55;;;2.58;;
14052;SDS011;7101;51.600;7.310;2023-04-03T06:54:41;5.57;;;2.10;;
14052;SDS011;7101;51.600;7.310;2023-04-03T06:57:13;5.50;;;2.40;;
14052;SDS011;7101;51.600;7.310;2023-04-03T06:59:52;5.38;;;2.03;;
14052;SDS011;7101;51.600;7.310;2023-04-03T07:02:21;5.80;;;2.28;;
14052;SDS011;7101;51.600;7.310;2023-04-03T07:04:54;10.75;;;2.50;;
14052;SDS011;7101;51.600;7.310;2023-04-03T07:07:21;6.47;;;2.58;;
14052;SDS011;7101;51.600;7.310;2023-04-03T07:09:50;5.40;;;2.30;;
14052;SDS011;7101;51.600;7.310;2023-04-03T07:12:18;4.43;;;2.30;;
14052;SDS011;7101;51.600;7.310;2023-04-03T07:14:51;5.55;;;2.30;;
14052;SDS011;7101;51.600;7.310;2023-04-03T07:17:18;4.15;;;2.10;;
14052;SDS011;7101;51.600;7.310;2023-04-03T07:19:45;8.45;;;2.83;;
14052;SDS011;7101;51.600;7.310;2023-04-03T07:22:13;5.60;;;2.15;;
14052;SDS011;7101;51.600;7.310;2023-04-03T07:24:41;6.55;;;2.00;;
14052;SDS011;7101;51.600;7.310;2023-04-03T07:27:15;6.43;;;2.22;;
14052;SDS011;7101;51.600;7.310;2023-04-03T07:29:42;6.57;;;1.90;;
14052;SDS011;7101;51.600;7.310;2023-04-03T07:32:18;4.45;;;2.38;;
14052;SDS011;7101;51.600;7.310;2023-04-03T07:34:45;6.43;;;2.42;;
14052;SDS011;7101;51.600;7.310;2023-04-03T07:37:19;6.20;;;2.10;;
14052;SDS011;7101;51.600;7.310;2023-04-03T07:39:47;5.82;;;2.42;;
14052;SDS011;7101;51.600;7.310;2023-04-03T07:42:30;3.10;;;1.90;;
14052;SDS011;7101;51.600;7.310;2023-04-03T07:44:58;6.30;;;2.10;;
14052;SDS011;7101;51.600;7.310;2023-04-03T07:47:32;4.65;;;2.00;;
14052;SDS011;7101;51.600;7.310;2023-04-03T07:50:02;4.55;;;2.35;;
14052;SDS011;7101;51.600;7.310;2023-04-03T07:52:29;4.15;;;2.03;;
14052;SDS011;7101;51.600;7.310;2023-04-03T07:54:57;6.70;;;2.67;;
14052;SDS011;7101;51.600;7.310;2023-04-03T07:57:32;5.25;;;2.50;;
14052;SDS011;7101;51.600;7.310;2023-04-03T08:00:00;5.78;;;2.08;;
14052;SDS011;7101;51.600;7.310;2023-04-03T08:02:33;5.75;;;2.42;;
14052;SDS011;7101;51.600;7.310;2023-04-03T08:05:06;5.13;;;2.08;;
14052;SDS011;7101;51.600;7.310;2023-04-03T08:07:52;7.00;;;2.30;;
14052;SDS011;7101;51.600;7.310;2023-04-03T08:10:25;5.00;;;2.30;;
14052;SDS011;7101;51.600;7.310;2023-04-03T08:15:44;5.47;;;2.65;;
14052;SDS011;7101;51.600;7.310;2023-04-03T08:18:11;5.07;;;2.00;;
14052;SDS011;7101;51.600;7.310;2023-04-03T08:20:38;7.88;;;2.17;;
14052;SDS011;7101;51.600;7.310;2023-04-03T08:23:06;4.68;;;2.25;;
14052;SDS011;7101;51.600;7.310;2023-04-03T08:25:33;7.50;;;2.03;;
14052;SDS011;7101;51.600;7.310;2023-04-03T08:28:04;6.35;;;2.22;;
14052;SDS011;7101;51.600;7.310;2023-04-03T08:30:33;4.82;;;1.80;;
14052;SDS011;7101;51.600;7.310;2023-04-03T08:33:03;4.55;;;1.75;;
14052;SDS011;7101;51.600;7.310;2023-04-03T08:35:32;3.90;;;1.80;;
14052;SDS011;7101;51.600;7.310;2023-04-03T08:37:59;4.32;;;2.03;;
14052;SDS011;7101;51.600;7.310;2023-04-03T08:40:26;6.03;;;1.80;;
14052;SDS011;7101;51.600;7.310;2023-04-03T08:42:59;5.45;;;1.65;;
14052;SDS011;7101;51.600;7.310;2023-04-03T08:45:43;3.90;;;1.65;;
14052;SDS011;7101;51.600;7.310;2023-04-03T08:48:15;2.92;;;1.38;;
14052;SDS011;7101;51.600;7.310;2023-04-03T08:50:49;3.97;;;1.60;;
14052;SDS011;7101;51.600;7.310;2023-04-03T08:53:20;5.57;;;1.50;;
14052;SDS011;7101;51.600;7.310;2023-04-03T08:55:50;2.90;;;1.45;;
14052;SDS011;7101;51.600;7.310;2023-04-03T08:58:20;3.55;;;1.67;;
14052;SDS011;7101;51.600;7.310;2023-04-03T09:00:51;4.75;;;1.30;;
14052;SDS011;7101;51.600;7.310;2023-04-03T09:03:28;3.15;;;1.70;;
14052;SDS011;7101;51.600;7.310;2023-04-03T09:05:57;5.97;;;1.73;;
14052;SDS011;7101;51.600;7.310;2023-04-03T09:08:30;4.25;;;1.67;;
14052;SDS011;7101;51.600;7.310;2023-04-03T09:11:06;5.50;;;1.95;;
14052;SDS011;7101;51.600;7.310;2023-04-03T09:13:41;3.40;;;1.60;;
14052;SDS011;7101;51.600;7.310;2023-04-03T09:16:21;3.60;;;1.50;;
14052;SDS011;7101;51.600;7.310;2023-04-03T09:18:59;4.85;;;1.50;;
14052;SDS011;7101;51.600;7.310;2023-04-03T09:21:34;2.05;;;1.20;;
14052;SDS011;7101;51.600;7.310;2023-04-03T09:24:07;3.53;;;1.27;;
14052;SDS011;7101;51.600;7.310;2023-04-03T09:26:38;3.38;;;1.08;;
14052;SDS011;7101;51.600;7.310;2023-04-03T09:29:11;3.75;;;1.50;;
14052;SDS011;7101;51.600;7.310;2023-04-03T09:31:46;2.80;;;1.38;;
14052;SDS011;7101;51.600;7.310;2023-04-03T09:34:18;4.72;;;1.27;;
14052;SDS011;7101;51.600;7.310;2023-04-03T09:36:49;7.05;;;1.70;;
14052;SDS011;7101;51.600;7.310;2023-04-03T09:39:18;2.03;;;1.33;;
14052;SDS011;7101;51.600;7.310;2023-04-03T09:42:00;4.50;;;1.50;;
14052;SDS011;7101;51.600;7.310;2023-04-03T09:44:28;3.00;;;1.20;;
14052;SDS011;7101;51.600;7.310;2023-04-03T09:46:58;1.65;;;0.90;;
14052;SDS011;7101;51.600;7.310;2023-04-03T09:49:26;2.42;;;1.10;;
14052;SDS011;7101;51.600;7.310;2023-04-03T09:51:53;2.22;;;1.20;;
14052;SDS011;7101;51.600;7.310;2023-04-03T09:57:07;3.65;;;1.52;;
14052;SDS011;7101;51.600;7.310;2023-04-03T09:59:40;3.50;;;1.65;;
14052;SDS011;7101;51.600;7.310;2023-04-03T10:05:05;3.08;;;1.48;;
14052;SDS011;7101;51.600;7.310;2023-04-03T10:08:07;2.33;;;1.20;;
14052;SDS011;7101;51.600;7.310;2023-04-03T10:13:36;3.67;;;1.38;;
14052;SDS011;7101;51.600;7.310;2023-04-03T10:16:19;2.38;;;1.30;;
14052;SDS011;7101;51.600;7.310;2023-04-03T10:18:55;3.47;;;1.42;;
14052;SDS011;7101;51.600;7.310;2023-04-03T10:21:35;3.67;;;1.35;;
14052;SDS011;7101;51.600;7.310;2023-04-03T10:24:12;4.15;;;1.48;;
14052;SDS011;7101;51.600;7.310;2023-04-03T10:26:45;3.30;;;1.27;;
14052;SDS011;7101;51.600;7.310;2023-04-03T10:29:21;2.75;;;1.23;;
14052;SDS011;7101;51.600;7.310;2023-04-03T10:32:12;4.22;;;1.30;;
14052;SDS011;7101;51.600;7.310;2023-04-03T10:34:56;3.25;;;1.27;;
14052;SDS011;7101;51.600;7.310;2023-04-03T10:37:47;3.15;;;1.30;;
14052;SDS011;7101;51.600;7.310;2023-04-03T10:42:59;2.80;;;1.23;;
14052;SDS011;7101;51.600;7.310;2023-04-03T10:48:18;2.03;;;0.90;;
14052;SDS011;7101;51.600;7.310;2023-04-03T10:51:01;5.15;;;1.10;;
14052;SDS011;7101;51.600;7.310;2023-04-03T10:53:41;5.05;;;1.30;;
14052;SDS011;7101;51.600;7.310;2023-04-03T10:56:14;3.25;;;1.05;;
14052;SDS011;7101;51.600;7.310;2023-04-03T10:58:47;3.15;;;1.10;;
14052;SDS011;7101;51.600;7.310;2023-04-03T11:01:17;4.85;;;1.50;;
14052;SDS011;7101;51.600;7.310;2023-04-03T11:03:47;2.22;;;1.20;;
14052;SDS011;7101;51.600;7.310;2023-04-03T11:06:17;3.08;;;1.30;;
14052;SDS011;7101;51.600;7.310;2023-04-03T11:08:50;3.03;;;1.00;;
14052;SDS011;7101;51.600;7.310;2023-04-03T11:11:22;2.85;;;1.25;;
14052;SDS011;7101;51.600;7.310;2023-04-03T11:13:54;3.10;;;1.13;;
14052;SDS011;7101;51.600;7.310;2023-04-03T11:16:26;2.70;;;1.10;;
14052;SDS011;7101;51.600;7.310;2023-04-03T11:18:57;4.40;;;1.48;;
14052;SDS011;7101;51.600;7.310;2023-04-03T11:21:31;1.75;;;1.17;;
14052;SDS011;7101;51.600;7.310;2023-04-03T11:24:05;4.80;;;1.67;;
14052;SDS011;7101;51.600;7.310;2023-04-03T11:26:42;1.80;;;0.80;;
14052;SDS011;7101;51.600;7.310;2023-04-03T11:29:11;1.52;;;1.00;;
14052;SDS011;7101;51.600;7.310;2023-04-03T11:31:47;2.08;;;0.93;;
14052;SDS011;7101;51.600;7.310;2023-04-03T11:34:31;2.28;;;1.10;;
14052;SDS011;7101;51.600;7.310;2023-04-03T11:37:05;3.10;;;1.27;;
14052;SDS011;7101;51.600;7.310;2023-04-03T11:39:48;3.08;;;1.05;;
14052;SDS011;7101;51.600;7.310;2023-04-03T11:42:24;2.28;;;1.00;;
14052;SDS011;7101;51.600;7.310;2023-04-03T11:47:58;2.25;;;1.20;;
14052;SDS011;7101;51.600;7.310;2023-04-03T11:50:30;5.57;;;1.33;;
14052;SDS011;7101;51.600;7.310;2023-04-03T11:55:57;2.47;;;1.17;;
14052;SDS011;7101;51.600;7.310;2023-04-03T11:58:27;6.82;;;1.33;;
14052;SDS011;7101;51.600;7.310;2023-04-03T12:01:02;4.40;;;1.27;;
14052;SDS011;7101;51.600;7.310;2023-04-03T12:09:27;3.28;;;1.25;;
14052;SDS011;7101;51.600;7.310;2023-04-03T12:15:23;3.97;;;1.50;;
14052;SDS011;7101;51.600;7.310;2023-04-03T12:18:31;2.17;;;1.40;;
14052;SDS011;7101;51.600;7.310;2023-04-03T12:21:23;3.95;;;1.10;;
14052;SDS011;7101;51.600;7.310;2023-04-03T12:24:32;2.40;;;1.20;;
14052;SDS011;7101;51.600;7.310;2023-04-03T12:27:09;3.97;;;1.25;;
14052;SDS011;7101;51.600;7.310;2023-04-03T12:29:53;4.53;;;1.30;;
14052;SDS011;7101;51.600;7.310;2023-04-03T12:32:36;4.75;;;1.17;;
14052;SDS011;7101;51.600;7.310;2023-04-03T12:35:34;1.75;;;1.10;;
14052;SDS011;7101;51.600;7.310;2023-04-03T12:41:23;2.45;;;1.25;;
14052;SDS011;7101;51.600;7.310;2023-04-03T12:44:05;6.22;;;1.30;;
14052;SDS011;7101;51.600;7.310;2023-04-03T12:47:07;3.70;;;1.30;;
14052;SDS011;7101;51.600;7.310;2023-04-03T12:49:46;2.50;;;1.10;;
14052;SDS011;7101;51.600;7.310;2023-04-03T12:52:17;2.40;;;1.10;;
14052;SDS011;7101;51.600;7.310;2023-04-03T12:54:49;3.92;;;1.20;;
14052;SDS011;7101;51.600;7.310;2023-04-03T12:57:18;3.30;;;1.30;;
14052;SDS011;7101;51.600;7.310;2023-04-03T12:59:47;5.22;;;1.52;;
14052;SDS011;7101;51.600;7.310;2023-04-03T13:02:25;2.13;;;1.13;;
14052;SDS011;7101;51.600;7.310;2023-04-03T13:04:54;2.15;;;1.10;;
14052;SDS011;7101;51.600;7.310;2023-04-03T13:07:26;1.70;;;1.00;;
14052;SDS011;7101;51.600;7.310;2023-04-03T13:10:03;1.27;;;1.00;;
14052;SDS011;7101;51.600;7.310;2023-04-03T13:12:45;1.85;;;0.98;;
14052;SDS011;7101;51.600;7.310;2023-04-03T13:15:14;6.50;;;1.40;;
14052;SDS011;7101;51.600;7.310;2023-04-03T13:17:46;2.17;;;1.10;;
14052;SDS011;7101;51.600;7.310;2023-04-03T13:20:17;3.65;;;1.45;;
14052;SDS011;7101;51.600;7.310;2023-04-03T13:22:50;4.90;;;1.35;;
14052;SDS011;7101;51.600;7.310;2023-04-03T13:25:31;4.20;;;1.20;;
14052;SDS011;7101;51.600;7.310;2023-04-03T13:28:02;2.40;;;1.08;;
14052;SDS011;7101;51.600;7.310;2023-04-03T13:30:40;3.10;;;1.52;;
14052;SDS011;7101;51.600;7.310;2023-04-03T13:33:23;4.43;;;1.30;;
14052;SDS011;7101;51.600;7.310;2023-04-03T13:35:56;5.78;;;1.50;;
14052;SDS011;7101;51.600;7.310;2023-04-03T13:38:26;3.65;;;1.27;;
14052;SDS011;7101;51.600;7.310;2023-04-03T13:40:59;6.18;;;1.50;;
14052;SDS011;7101;51.600;7.310;2023-04-03T13:43:29;3.47;;;1.30;;
14052;SDS011;7101;51.600;7.310;2023-04-03T13:45:59;3.15;;;1.33;;
14052;SDS011;7101;51.600;7.310;2023-04-03T13:48:39;2.33;;;1.35;;
14052;SDS011;7101;51.600;7.310;2023-04-03T13:51:17;3.55;;;1.40;;
14052;SDS011;7101;51.600;7.310;2023-04-03T13:53:54;2.92;;;1.30;;
14052;SDS011;7101;51.600;7.310;2023-04-03T13:56:25;2.80;;;1.30;;
14052;SDS011;7101;51.600;7.310;2023-04-03T13:58:58;2.55;;;1.13;;
14052;SDS011;7101;51.600;7.310;2023-04-03T14:01:39;3.95;;;1.15;;
14052;SDS011;7101;51.600;7.310;2023-04-03T14:04:15;3.38;;;1.30;;
14052;SDS011;7101;51.600;7.310;2023-04-03T14:06:44;3.65;;;1.38;;
14052;SDS011;7101;51.600;7.310;2023-04-03T14:09:13;4.60;;;1.25;;
14052;SDS011;7101;51.600;7.310;2023-04-03T14:11:42;3.30;;;1.40;;
14052;SDS011;7101;51.600;7.310;2023-04-03T14:14:11;2.40;;;1.17;;
14052;SDS011;7101;51.600;7.310;2023-04-03T14:16:42;3.65;;;1.25;;
14052;SDS011;7101;51.600;7.310;2023-04-03T14:19:17;3.22;;;1.30;;
14052;SDS011;7101;51.600;7.310;2023-04-03T14:21:45;3.08;;;1.25;;
14052;SDS011;7101;51.600;7.310;2023-04-03T14:24:13;5.30;;;1.38;;
14052;SDS011;7101;51.600;7.310;2023-04-03T14:26:39;5.63;;;1.17;;
14052;SDS011;7101;51.600;7.310;2023-04-03T14:29:09;2.50;;;1.20;;
14052;SDS011;7101;51.600;7.310;2023-04-03T14:31:37;2.72;;;1.38;;
14052;SDS011;7101;51.600;7.310;2023-04-03T14:34:04;6.25;;;1.40;;
14052;SDS011;7101;51.600;7.310;2023-04-03T14:36:33;6.65;;;1.50;;
14052;SDS011;7101;51.600;7.310;2023-04-03T14:39:00;3.05;;;1.40;;
14052;SDS011;7101;51.600;7.310;2023-04-03T14:41:28;3.83;;;1.27;;
14052;SDS011;7101;51.600;7.310;2023-04-03T14:43:55;3.90;;;1.33;;
14052;SDS011;7101;51.600;7.310;2023-04-03T14:46:24;2.22;;;1.45;;
14052;SDS011;7101;51.600;7.310;2023-04-03T14:48:54;4.40;;;1.70;;
14052;SDS011;7101;51.600;7.310;2023-04-03T14:51:21;5.10;;;1.70;;
14052;SDS011;7101;51.600;7.310;2023-04-03T14:53:50;3.40;;;1.40;;
14052;SDS011;7101;51.600;7.310;2023-04-03T14:56:18;2.75;;;1.85;;
14052;SDS011;7101;51.600;7.310;2023-04-03T14:58:49;3.28;;;1.50;;
14052;SDS011;7101;51.600;7.310;2023-04-03T15:01:18;5.43;;;1.70;;
14052;SDS011;7101;51.600;7.310;2023-04-03T15:03:45;4.80;;;1.40;;
14052;SDS011;7101;51.600;7.310;2023-04-03T15:06:12;4.22;;;1.30;;
14052;SDS011;7101;51.600;7.310;2023-04-03T15:08:40;7.95;;;1.50;;
14052;SDS011;7101;51.600;7.310;2023-04-03T15:11:10;2.58;;;1.40;;
14052;SDS011;7101;51.600;7.310;2023-04-03T15:13:37;3.35;;;1.30;;
14052;SDS011;7101;51.600;7.310;2023-04-03T15:16:04;3.55;;;1.40;;
14052;SDS011;7101;51.600;7.310;2023-04-03T15:18:33;5.13;;;1.40;;
14052;SDS011;7101;51.600;7.310;2023-04-03T15:21:03;4.90;;;1.35;;
14052;SDS011;7101;51.600;7.310;2023-04-03T15:23:31;3.38;;;1.27;;
14052;SDS011;7101;51.600;7.310;2023-04-03T15:25:57;2.95;;;1.42;;
14052;SDS011;7101;51.600;7.310;2023-04-03T15:28:26;2.10;;;1.10;;
14052;SDS011;7101;51.600;7.310;2023-04-03T15:30:57;2.38;;;1.50;;
14052;SDS011;7101;51.600;7.310;2023-04-03T15:33:24;4.32;;;1.40;;
14052;SDS011;7101;51.600;7.310;2023-04-03T15:35:51;2.75;;;1.70;;
14052;SDS011;7101;51.600;7.310;2023-04-03T15:38:18;2.53;;;1.45;;
14052;SDS011;7101;51.600;7.310;2023-04-03T15:40:45;4.65;;;1.52;;
14052;SDS011;7101;51.600;7.310;2023-04-03T15:43:13;2.20;;;1.25;;
14052;SDS011;7101;51.600;7.310;2023-04-03T15:45:41;3.45;;;1.50;;
14052;SDS011;7101;51.600;7.310;2023-04-03T15:48:11;4.55;;;1.70;;
14052;SDS011;7101;51.600;7.310;2023-04-03T15:50:38;3.58;;;1.48;;
14052;SDS011;7101;51.600;7.310;2023-04-03T15:53:06;3.42;;;1.10;;
14052;SDS011;7101;51.600;7.310;2023-04-03T15:55:33;4.93;;;1.70;;
14052;SDS011;7101;51.600;7.310;2023-04-03T15:58:02;1.83;;;1.30;;
14052;SDS011;7101;51.600;7.310;2023-04-03T16:00:30;4.40;;;1.70;;
14052;SDS011;7101;51.600;7.310;2023-04-03T16:03:02;3.00;;;1.15;;
14052;SDS011;7101;51.600;7.310;2023-04-03T16:05:41;2.75;;;1.30;;